Warning: Javascript must be enabled to use all the features on this page!


Page Loading - Please Wait...

Click to hideNews Bulletins

Peak Streamflow for the Nation

USGS 05484900 Raccoon River at Fleur Drive at Des Moines, IA

Polk County, Iowa
Hydrologic Unit Code 07100006
Latitude  41°34'54", Longitude  93°38'34" NAD27
Drainage area 3,625  square miles
Gage datum 780.70 feet above NGVD29
Output formats
Table
Graph
Tab-separated file
peakfq (watstore) format
Reselect output format
Water
Year
Date Gage
Height
(feet)
Stream-
flow
(cfs)
1947 1947-06-13 120.20  
1960 1960-04-02 118.80  
1984 1984-06-18 16.34 31,5002
1985 1985-02-23 7.901  
1986 1986-07-02 19.38 34,4002
1987 1987-08-27 12.39 12,2002
1989 1989-09-09 7.85 4,0202
1990 1990-06-17 19.42 33,6002
1991 1991-06-08 15.36 21,9002
1993 1993-07-11 26.80 67,9002
1995 1995-05-29 11.34 12,3002
1996 1996-06-22 13.67 15,5002
1997 1997-02-19 13.93 13,400
1998 1998-06-16 20.45 45,000
1999 1999-05-22 16.02 23,600
2000 2000-07-06 7.46 5,760
2001 2001-05-07 12.802 15,300
2002 2002-06-13 8.39 7,440
2003 2003-05-09 14.84 20,800
2004 2004-05-24 19.45 38,400
2005 2005-05-13 15.03 23,100
2006 2006-05-03 7.99 7,620
2007 2007-04-27 19.17 37,600
2008 2008-06-13 24.66 56,300
2009 2009-04-28 14.802 22,400
2010 2010-03-18 17.92 28,800
2011 2011-06-21 13.17 17,400
2012 2012-04-15 7.31 6,600
2013 2013-05-31 16.432 25,600
2014 2014-09-10 14.31 19,800
2015 2015-06-26 21.54 52,2006
2016 2015-12-15 18.09 30,6006
2017 2017-05-21 12.242 15,700
2018 2018-07-01 16.33 22,200
2019 2019-03-15 19.77 38,300
2020 2019-10-12 11.23 13,900
?
  Peak Gage-Height Qualification Codes.
?
  Peak Streamflow Qualification Codes.